createdAt,value
2022-07-29T00:01:44.528Z,2.95
2022-07-29T00:04:14.271Z,2.92
2022-07-29T00:06:43.356Z,2.17
2022-07-29T00:09:12.036Z,2.53
2022-07-29T00:11:40.690Z,2.08
2022-07-29T00:14:11.612Z,2.63
2022-07-29T00:16:40.209Z,2.58
2022-07-29T00:19:10.994Z,2.85
2022-07-29T00:21:39.317Z,2.60
2022-07-29T00:24:08.081Z,2.80
2022-07-29T00:26:36.638Z,3.25
2022-07-29T00:29:32.995Z,2.67
2022-07-29T00:31:56.579Z,2.50
2022-07-29T00:34:43.002Z,2.90
2022-07-29T00:37:11.378Z,2.13
2022-07-29T00:39:39.690Z,2.17
2022-07-29T00:42:09.134Z,2.60
2022-07-29T00:44:40.035Z,2.97
2022-07-29T00:47:12.043Z,2.53
2022-07-29T00:49:41.887Z,2.90
2022-07-29T00:52:12.695Z,2.95
2022-07-29T00:54:45.328Z,2.47
2022-07-29T00:57:14.844Z,2.50
2022-07-29T00:59:43.754Z,2.90
2022-07-29T01:02:13.458Z,2.58
2022-07-29T01:04:43.689Z,2.65
2022-07-29T01:07:13.181Z,2.95
2022-07-29T01:09:46.816Z,2.33
2022-07-29T01:12:20.269Z,2.90
2022-07-29T01:14:51.099Z,3.17
2022-07-29T01:17:29.068Z,2.67
2022-07-29T01:20:05.075Z,3.20
2022-07-29T01:23:35.907Z,2.38
2022-07-29T01:26:40.666Z,2.28
2022-07-29T01:29:19.007Z,2.50
2022-07-29T01:31:59.037Z,2.30
2022-07-29T01:34:45.194Z,2.20
2022-07-29T01:37:24.532Z,2.40
2022-07-29T01:39:57.368Z,2.35
2022-07-29T01:42:33.793Z,2.22
2022-07-29T01:45:17.557Z,2.13
2022-07-29T01:47:55.316Z,2.58
2022-07-29T01:50:35.367Z,2.33
2022-07-29T01:53:08.105Z,1.85
2022-07-29T01:55:41.993Z,1.92
2022-07-29T01:58:12.906Z,2.08
2022-07-29T02:00:44.803Z,2.00
2022-07-29T02:03:15.807Z,2.03
2022-07-29T02:05:47.118Z,1.90
2022-07-29T02:08:17.498Z,1.75
2022-07-29T02:10:50.414Z,2.35
2022-07-29T02:13:20.825Z,2.17
2022-07-29T02:15:53.331Z,2.10
2022-07-29T02:20:57.166Z,2.15
2022-07-29T02:23:27.176Z,2.15
2022-07-29T02:25:58.289Z,2.10
2022-07-29T02:28:31.541Z,1.98
2022-07-29T02:31:04.285Z,2.10
2022-07-29T02:36:03.806Z,2.28
2022-07-29T02:38:51.444Z,2.28
2022-07-29T02:41:25.063Z,2.08
2022-07-29T02:43:59.303Z,1.90
2022-07-29T02:46:35.121Z,1.98
2022-07-29T02:49:17.719Z,1.92
2022-07-29T02:54:31.649Z,2.20
2022-07-29T02:57:03.670Z,2.10
2022-07-29T02:59:35.298Z,2.20
2022-07-29T03:02:07.002Z,2.20
2022-07-29T03:04:37.933Z,2.22
2022-07-29T03:07:09.584Z,2.42
2022-07-29T03:09:38.787Z,2.37
2022-07-29T03:12:08.535Z,1.98
2022-07-29T03:14:39.055Z,2.17
2022-07-29T03:17:09.446Z,2.10
2022-07-29T03:19:38.397Z,2.15
2022-07-29T03:22:07.052Z,2.33
2022-07-29T03:24:37.637Z,2.10
2022-07-29T03:27:07.309Z,2.40
2022-07-29T03:29:35.881Z,1.73
2022-07-29T03:32:09.179Z,2.70
2022-07-29T03:34:39.424Z,1.95
2022-07-29T03:37:08.654Z,2.10
2022-07-29T03:39:43.427Z,2.72
2022-07-29T03:42:16.002Z,2.17
2022-07-29T03:44:49.649Z,2.30
2022-07-29T03:47:38.569Z,2.13
2022-07-29T03:50:16.733Z,2.20
2022-07-29T03:52:45.576Z,2.38
2022-07-29T03:55:14.719Z,1.85
2022-07-29T03:57:44.767Z,2.28
2022-07-29T04:00:13.943Z,1.85
2022-07-29T04:02:47.892Z,1.83
2022-07-29T04:05:17.365Z,2.13
2022-07-29T04:07:47.171Z,1.98
2022-07-29T04:10:17.852Z,1.73
2022-07-29T04:12:57.662Z,1.80
2022-07-29T04:15:31.175Z,2.35
2022-07-29T04:18:01.804Z,1.77
2022-07-29T04:20:30.166Z,2.08
2022-07-29T04:22:58.500Z,1.92
2022-07-29T04:25:26.785Z,2.15
2022-07-29T04:28:04.198Z,2.10
2022-07-29T04:30:34.566Z,1.98
2022-07-29T04:33:06.162Z,2.30
2022-07-29T04:35:45.705Z,2.28
2022-07-29T04:38:18.951Z,2.78
2022-07-29T04:40:47.324Z,2.22
2022-07-29T04:43:22.658Z,2.35
2022-07-29T04:45:52.005Z,2.13
2022-07-29T04:48:28.209Z,2.28
2022-07-29T04:50:57.557Z,2.33
2022-07-29T04:53:26.469Z,2.55
2022-07-29T04:55:54.934Z,2.17
2022-07-29T04:58:24.446Z,2.88
2022-07-29T05:00:53.136Z,3.72
2022-07-29T05:03:24.217Z,3.50
2022-07-29T05:05:53.065Z,3.70
2022-07-29T05:08:21.566Z,3.28
2022-07-29T05:10:50.191Z,4.72
2022-07-29T05:13:18.947Z,5.40
2022-07-29T05:15:47.354Z,4.60
2022-07-29T05:18:15.875Z,5.28
2022-07-29T05:20:47.925Z,5.55
2022-07-29T05:23:17.989Z,5.35
2022-07-29T05:25:47.245Z,4.53
2022-07-29T05:28:16.055Z,4.95
2022-07-29T05:30:45.302Z,5.20
2022-07-29T05:33:34.646Z,5.53
2022-07-29T05:36:03.687Z,6.10
2022-07-29T05:38:32.423Z,4.75
2022-07-29T05:41:01.292Z,4.93
2022-07-29T05:43:29.984Z,4.97
2022-07-29T05:45:58.690Z,4.93
2022-07-29T05:48:28.721Z,3.75
2022-07-29T05:50:57.153Z,4.60
2022-07-29T05:53:26.803Z,6.45
2022-07-29T05:55:55.602Z,4.40
2022-07-29T05:58:24.125Z,4.47
2022-07-29T06:00:52.365Z,4.50
2022-07-29T06:03:20.686Z,4.50
2022-07-29T06:05:49.073Z,3.95
2022-07-29T06:08:18.140Z,4.57
2022-07-29T06:10:48.156Z,4.70
2022-07-29T06:13:16.901Z,4.70
2022-07-29T06:15:45.470Z,4.40
2022-07-29T06:18:15.005Z,3.90
2022-07-29T06:20:43.656Z,4.72
2022-07-29T06:23:12.099Z,4.93
2022-07-29T06:25:42.504Z,4.72
2022-07-29T06:28:12.575Z,5.30
2022-07-29T06:30:44.900Z,5.03
2022-07-29T06:33:19.762Z,4.65
2022-07-29T06:35:53.385Z,4.90
2022-07-29T06:38:31.649Z,4.70
2022-07-29T06:41:03.901Z,4.70
2022-07-29T06:43:52.249Z,4.50
2022-07-29T06:46:24.384Z,4.30
2022-07-29T06:48:54.277Z,4.70
2022-07-29T06:51:24.249Z,4.80
2022-07-29T06:53:59.869Z,5.47
2022-07-29T06:56:39.098Z,4.88
2022-07-29T06:59:11.096Z,4.63
2022-07-29T07:01:40.526Z,4.40
2022-07-29T07:04:10.179Z,4.03
2022-07-29T07:06:39.075Z,4.40
2022-07-29T07:09:07.826Z,4.88
2022-07-29T07:11:36.210Z,4.35
2022-07-29T07:14:05.283Z,3.72
2022-07-29T07:16:35.732Z,3.83
2022-07-29T07:19:06.823Z,3.90
2022-07-29T07:21:36.407Z,4.13
2022-07-29T07:24:05.565Z,3.88
2022-07-29T07:26:34.682Z,4.00
2022-07-29T07:29:02.917Z,3.70
2022-07-29T07:31:31.605Z,3.80
2022-07-29T07:34:01.601Z,3.92
2022-07-29T07:36:30.250Z,4.57
2022-07-29T07:38:58.806Z,3.85
2022-07-29T07:41:27.811Z,4.05
2022-07-29T07:44:03.719Z,3.80
2022-07-29T07:46:32.638Z,4.00
2022-07-29T07:49:02.423Z,3.67
2022-07-29T07:51:31.296Z,3.80
2022-07-29T07:53:59.763Z,4.10
2022-07-29T07:56:33.250Z,3.92
2022-07-29T07:59:03.597Z,4.53
2022-07-29T08:01:47.844Z,4.72
2022-07-29T08:04:27.534Z,4.88
2022-07-29T08:06:58.102Z,5.45
2022-07-29T08:09:30.157Z,4.53
2022-07-29T08:12:00.333Z,4.60
2022-07-29T08:14:28.756Z,4.10
2022-07-29T08:16:57.356Z,4.65
2022-07-29T08:19:29.909Z,3.63
2022-07-29T08:21:59.414Z,3.78
2022-07-29T08:24:53.380Z,3.65
2022-07-29T08:27:42.460Z,3.95
2022-07-29T08:30:12.499Z,2.95
2022-07-29T08:32:56.469Z,3.35
2022-07-29T08:35:26.887Z,3.08
2022-07-29T08:37:56.679Z,3.70
2022-07-29T08:40:31.936Z,3.40
2022-07-29T08:43:06.459Z,3.42
2022-07-29T08:45:48.178Z,3.22
2022-07-29T08:48:19.475Z,3.63
2022-07-29T08:50:58.322Z,3.10
2022-07-29T08:53:30.111Z,3.13
2022-07-29T08:56:01.518Z,3.13
2022-07-29T08:58:36.625Z,2.95
2022-07-29T09:01:07.698Z,3.85
2022-07-29T09:03:49.312Z,3.65
2022-07-29T09:06:23.468Z,3.38
2022-07-29T09:08:52.292Z,3.28
2022-07-29T09:11:21.376Z,3.33
2022-07-29T09:13:50.512Z,2.85
2022-07-29T09:16:37.279Z,2.90
2022-07-29T09:19:24.141Z,2.30
2022-07-29T09:22:03.587Z,2.63
2022-07-29T09:24:44.684Z,2.95
2022-07-29T09:27:23.053Z,2.33
2022-07-29T09:30:01.967Z,2.22
2022-07-29T09:32:31.192Z,2.70
2022-07-29T09:35:22.681Z,3.50
2022-07-29T09:37:52.921Z,2.88
2022-07-29T09:40:24.229Z,6.05
2022-07-29T09:42:53.803Z,2.83
2022-07-29T09:45:31.697Z,2.95
2022-07-29T09:48:04.268Z,2.88
2022-07-29T09:50:40.852Z,2.45
2022-07-29T09:53:11.476Z,2.60
2022-07-29T09:55:51.922Z,2.70
2022-07-29T09:58:22.241Z,2.78
2022-07-29T10:00:53.033Z,2.47
2022-07-29T10:03:22.370Z,2.83
2022-07-29T10:06:08.638Z,3.42
2022-07-29T10:08:39.302Z,4.35
2022-07-29T10:11:15.684Z,4.07
2022-07-29T10:13:46.866Z,4.65
2022-07-29T10:16:17.389Z,4.85
2022-07-29T10:18:47.762Z,4.47
2022-07-29T10:21:35.569Z,4.55
2022-07-29T10:24:14.900Z,4.18
2022-07-29T10:26:45.606Z,3.75
2022-07-29T10:29:14.124Z,5.00
2022-07-29T10:31:51.284Z,3.97
2022-07-29T10:34:28.408Z,4.32
2022-07-29T10:37:06.598Z,4.00
2022-07-29T10:39:53.927Z,3.50
2022-07-29T10:42:29.832Z,3.45
2022-07-29T10:45:04.384Z,3.88
2022-07-29T10:47:35.062Z,3.45
2022-07-29T10:50:07.164Z,3.28
2022-07-29T10:52:57.497Z,3.90
2022-07-29T10:55:43.138Z,3.20
2022-07-29T10:58:17.860Z,3.78
2022-07-29T11:00:47.906Z,3.05
2022-07-29T11:03:53.767Z,3.37
2022-07-29T11:06:30.962Z,3.20
2022-07-29T11:09:25.926Z,2.90
2022-07-29T11:12:05.855Z,2.80
2022-07-29T11:15:01.643Z,2.80
2022-07-29T11:17:37.568Z,3.05
2022-07-29T11:20:42.325Z,2.60
2022-07-29T11:23:24.420Z,3.22
2022-07-29T11:26:21.175Z,3.50
2022-07-29T11:29:01.069Z,3.15
2022-07-29T11:31:40.059Z,3.95
2022-07-29T11:37:27.910Z,4.57
2022-07-29T11:40:20.201Z,4.70
2022-07-29T11:45:50.731Z,3.88
2022-07-29T11:48:31.800Z,4.97
2022-07-29T11:51:03.124Z,3.97
2022-07-29T11:53:32.896Z,3.28
2022-07-29T11:56:03.651Z,3.72
2022-07-29T11:58:33.326Z,3.72
2022-07-29T12:01:04.820Z,2.92
2022-07-29T12:03:36.156Z,2.65
2022-07-29T12:06:15.114Z,2.63
2022-07-29T12:07:01.565Z,3.47
2022-07-29T12:08:45.220Z,2.65
2022-07-29T12:11:22.369Z,3.30
2022-07-29T12:13:52.336Z,2.55
2022-07-29T12:16:25.437Z,1.90
2022-07-29T12:18:59.911Z,2.47
2022-07-29T12:21:29.420Z,2.58
2022-07-29T12:24:05.686Z,2.90
2022-07-29T12:26:40.342Z,3.55
2022-07-29T12:29:15.439Z,2.65
2022-07-29T12:31:47.262Z,2.50
2022-07-29T12:34:18.282Z,2.30
2022-07-29T12:36:46.911Z,2.85
2022-07-29T12:39:17.013Z,2.72
2022-07-29T12:41:46.204Z,2.08
2022-07-29T12:44:14.817Z,2.60
2022-07-29T12:46:47.468Z,3.28
2022-07-29T12:49:24.796Z,3.05
2022-07-29T12:51:53.533Z,3.03
2022-07-29T12:54:21.928Z,3.30
2022-07-29T12:57:01.233Z,3.03
2022-07-29T12:59:29.505Z,3.00
2022-07-29T13:02:00.950Z,3.55
2022-07-29T13:04:31.896Z,3.20
2022-07-29T13:07:06.899Z,3.63
2022-07-29T13:09:43.945Z,3.40
2022-07-29T13:12:15.189Z,2.75
2022-07-29T13:14:46.005Z,3.33
2022-07-29T13:17:18.137Z,3.50
2022-07-29T13:22:19.417Z,3.00
2022-07-29T13:24:52.972Z,3.40
2022-07-29T13:27:23.971Z,3.10
2022-07-29T13:29:54.370Z,2.90
2022-07-29T13:32:27.690Z,2.90
2022-07-29T13:34:57.106Z,3.10
2022-07-29T13:37:25.605Z,2.97
2022-07-29T13:39:55.010Z,2.75
2022-07-29T13:42:23.442Z,3.00
2022-07-29T13:44:54.746Z,3.07
2022-07-29T13:47:32.381Z,2.15
2022-07-29T13:50:02.178Z,2.30
2022-07-29T13:52:31.800Z,1.90
2022-07-29T13:55:00.346Z,2.35
2022-07-29T13:57:29.737Z,2.28
2022-07-29T13:59:59.021Z,2.55
2022-07-29T14:02:29.084Z,3.35
2022-07-29T14:04:57.483Z,2.70
2022-07-29T14:07:26.280Z,2.47
2022-07-29T14:09:54.999Z,2.67
2022-07-29T14:12:23.571Z,2.78
2022-07-29T14:14:53.347Z,2.35
2022-07-29T14:17:21.979Z,2.10
2022-07-29T14:19:52.351Z,1.95
2022-07-29T14:22:23.056Z,2.00
2022-07-29T14:24:54.505Z,2.28
2022-07-29T14:27:37.910Z,2.20
2022-07-29T14:30:09.419Z,2.13
2022-07-29T14:32:37.926Z,1.98
2022-07-29T14:35:09.349Z,1.75
2022-07-29T14:37:40.435Z,2.03
2022-07-29T14:40:12.709Z,2.03
2022-07-29T14:42:42.201Z,2.40
2022-07-29T14:45:12.721Z,1.65
2022-07-29T14:47:42.108Z,2.03
2022-07-29T14:50:13.123Z,1.73
2022-07-29T14:52:41.837Z,1.75
2022-07-29T14:55:16.382Z,1.70
2022-07-29T14:57:49.437Z,1.80
2022-07-29T15:00:18.471Z,1.77
2022-07-29T15:03:01.398Z,1.35
2022-07-29T15:05:32.384Z,1.77
2022-07-29T15:08:01.226Z,1.67
2022-07-29T15:10:30.004Z,1.65
2022-07-29T15:12:58.676Z,2.03
2022-07-29T15:15:27.674Z,2.05
2022-07-29T15:17:56.695Z,1.90
2022-07-29T15:20:26.156Z,1.73
2022-07-29T15:22:56.984Z,1.77
2022-07-29T15:25:25.732Z,2.10
2022-07-29T15:28:01.093Z,1.83
2022-07-29T15:30:33.467Z,1.92
2022-07-29T15:33:04.905Z,1.60
2022-07-29T15:35:40.217Z,1.90
2022-07-29T15:38:10.821Z,2.08
2022-07-29T15:40:42.094Z,2.13
2022-07-29T15:43:10.500Z,2.58
2022-07-29T15:45:40.379Z,2.53
2022-07-29T15:48:14.656Z,2.47
2022-07-29T15:50:47.103Z,2.30
2022-07-29T15:55:46.232Z,2.55
2022-07-29T15:58:14.720Z,2.50
2022-07-29T16:00:43.085Z,2.30
2022-07-29T16:03:12.705Z,2.75
2022-07-29T16:05:43.525Z,2.45
2022-07-29T16:08:12.093Z,2.38
2022-07-29T16:10:41.832Z,2.78
2022-07-29T16:13:10.361Z,2.80
2022-07-29T16:16:02.112Z,2.88
2022-07-29T16:18:30.926Z,2.30
2022-07-29T16:20:59.499Z,2.40
2022-07-29T16:23:28.052Z,2.50
2022-07-29T16:26:00.237Z,2.53
2022-07-29T16:28:29.616Z,2.85
2022-07-29T16:30:58.079Z,2.83
2022-07-29T16:33:26.472Z,2.35
2022-07-29T16:35:54.887Z,3.10
2022-07-29T16:38:23.173Z,3.17
2022-07-29T16:40:51.918Z,2.17
2022-07-29T16:43:21.655Z,2.67
2022-07-29T16:45:51.049Z,2.25
2022-07-29T16:48:19.275Z,2.88
2022-07-29T16:50:47.880Z,3.08
2022-07-29T16:53:18.931Z,2.33
2022-07-29T16:55:47.596Z,2.28
2022-07-29T16:58:16.121Z,2.50
2022-07-29T17:00:45.970Z,2.35
2022-07-29T17:03:14.549Z,2.67
2022-07-29T17:05:53.679Z,2.30
2022-07-29T17:08:22.971Z,3.00
2022-07-29T17:10:51.497Z,2.97
2022-07-29T17:13:20.216Z,2.58
2022-07-29T17:15:49.974Z,2.88
2022-07-29T17:18:19.945Z,2.55
2022-07-29T17:20:48.311Z,2.83
2022-07-29T17:23:16.657Z,3.22
2022-07-29T17:25:44.987Z,2.63
2022-07-29T17:28:13.265Z,2.50
2022-07-29T17:30:41.657Z,2.63
2022-07-29T17:33:11.277Z,2.30
2022-07-29T17:35:57.034Z,2.47
2022-07-29T17:38:25.375Z,3.08
2022-07-29T17:40:53.738Z,3.08
2022-07-29T17:43:22.058Z,2.80
2022-07-29T17:45:50.902Z,2.53
2022-07-29T17:48:23.239Z,3.30
2022-07-29T17:50:53.174Z,2.67
2022-07-29T17:53:21.968Z,3.00
2022-07-29T17:55:50.367Z,2.83
2022-07-29T17:58:18.907Z,2.60
2022-07-29T18:00:47.565Z,2.92
2022-07-29T18:03:21.407Z,2.95
2022-07-29T18:05:50.829Z,2.92
2022-07-29T18:08:19.594Z,2.72
2022-07-29T18:10:48.781Z,2.70
2022-07-29T18:13:17.780Z,2.70
2022-07-29T18:15:47.506Z,2.70
2022-07-29T18:18:18.281Z,2.67
2022-07-29T18:20:48.717Z,2.22
2022-07-29T18:23:20.481Z,2.92
2022-07-29T18:25:49.008Z,2.58
2022-07-29T18:28:19.009Z,2.20
2022-07-29T18:30:47.991Z,2.80
2022-07-29T18:33:21.663Z,2.63
2022-07-29T18:36:10.810Z,2.63
2022-07-29T18:38:41.202Z,2.33
2022-07-29T18:41:09.836Z,2.40
2022-07-29T18:43:45.597Z,2.58
2022-07-29T18:46:19.634Z,3.13
2022-07-29T18:48:48.334Z,2.33
2022-07-29T18:51:18.383Z,2.40
2022-07-29T18:53:46.835Z,2.70
2022-07-29T18:56:20.620Z,2.53
2022-07-29T18:58:49.157Z,2.60
2022-07-29T19:01:17.909Z,2.70
2022-07-29T19:03:56.833Z,2.67
2022-07-29T19:06:29.621Z,2.90
2022-07-29T19:08:58.212Z,2.45
2022-07-29T19:11:26.559Z,2.50
2022-07-29T19:13:55.111Z,2.63
2022-07-29T19:16:24.113Z,2.80
2022-07-29T19:18:53.008Z,2.55
2022-07-29T19:21:22.452Z,2.80
2022-07-29T19:24:01.390Z,3.05
2022-07-29T19:26:39.283Z,2.58
2022-07-29T19:29:08.149Z,2.40
2022-07-29T19:31:36.619Z,2.92
2022-07-29T19:34:05.529Z,2.63
2022-07-29T19:36:34.270Z,2.78
2022-07-29T19:39:05.089Z,2.97
2022-07-29T19:41:33.730Z,3.00
2022-07-29T19:44:02.159Z,3.22
2022-07-29T19:46:31.067Z,2.67
2022-07-29T19:48:59.525Z,3.03
2022-07-29T19:51:28.510Z,2.63
2022-07-29T19:53:57.161Z,2.85
2022-07-29T19:56:29.820Z,3.20
2022-07-29T19:58:58.980Z,2.88
2022-07-29T20:01:27.813Z,3.00
2022-07-29T20:03:56.920Z,3.20
2022-07-29T20:06:27.323Z,2.60
2022-07-29T20:08:58.771Z,3.10
2022-07-29T20:11:29.738Z,3.15
2022-07-29T20:13:58.242Z,2.53
2022-07-29T20:16:27.218Z,3.03
2022-07-29T20:18:55.589Z,2.95
2022-07-29T20:21:25.448Z,3.30
2022-07-29T20:23:54.022Z,3.33
2022-07-29T20:26:22.442Z,3.40
2022-07-29T20:28:52.192Z,4.28
2022-07-29T20:31:20.996Z,3.38
2022-07-29T20:33:49.847Z,3.67
2022-07-29T20:36:18.477Z,3.78
2022-07-29T20:38:46.789Z,4.50
2022-07-29T20:41:15.746Z,4.20
2022-07-29T20:43:45.495Z,4.43
2022-07-29T20:46:15.292Z,3.72
2022-07-29T20:48:44.034Z,4.03
2022-07-29T20:51:12.764Z,4.20
2022-07-29T20:53:41.725Z,4.03
2022-07-29T20:56:12.555Z,4.50
2022-07-29T20:58:42.252Z,4.22
2022-07-29T21:01:11.351Z,4.97
2022-07-29T21:03:41.100Z,3.92
2022-07-29T21:06:09.550Z,3.90
2022-07-29T21:08:38.090Z,4.88
2022-07-29T21:11:06.639Z,4.85
2022-07-29T21:13:39.839Z,5.18
2022-07-29T21:16:14.894Z,4.50
2022-07-29T21:18:46.543Z,3.90
2022-07-29T21:21:16.964Z,3.88
2022-07-29T21:23:46.002Z,5.05
2022-07-29T21:26:16.055Z,13.48
2022-07-29T21:28:43.796Z,6.63
2022-07-29T21:31:14.521Z,5.88
2022-07-29T21:33:47.036Z,5.80
2022-07-29T21:36:46.748Z,6.18
2022-07-29T21:39:07.808Z,5.13
2022-07-29T21:41:36.346Z,4.70
2022-07-29T21:44:05.109Z,5.03
2022-07-29T21:46:33.461Z,5.45
2022-07-29T21:49:03.208Z,5.28
2022-07-29T21:51:31.553Z,5.18
2022-07-29T21:53:59.899Z,5.47
2022-07-29T21:56:28.196Z,5.32
2022-07-29T21:58:57.570Z,5.07
2022-07-29T22:01:26.066Z,5.22
2022-07-29T22:03:54.549Z,4.65
2022-07-29T22:06:25.380Z,5.03
2022-07-29T22:08:53.908Z,4.57
2022-07-29T22:11:23.640Z,4.85
2022-07-29T22:13:52.102Z,4.93
2022-07-29T22:16:20.676Z,5.07
2022-07-29T22:18:49.309Z,4.43
2022-07-29T22:21:17.681Z,4.68
2022-07-29T22:23:47.514Z,5.07
2022-07-29T22:26:15.962Z,5.00
2022-07-29T22:28:44.334Z,4.78
2022-07-29T22:31:12.812Z,4.78
2022-07-29T22:33:41.700Z,5.03
2022-07-29T22:36:10.434Z,4.85
2022-07-29T22:38:38.818Z,4.72
2022-07-29T22:41:09.839Z,4.80
2022-07-29T22:43:43.951Z,5.47
2022-07-29T22:46:12.368Z,6.28
2022-07-29T22:48:40.697Z,5.63
2022-07-29T22:51:09.203Z,5.38
2022-07-29T22:53:38.742Z,5.18
2022-07-29T22:56:07.176Z,6.13
2022-07-29T22:58:37.609Z,4.90
2022-07-29T23:01:06.197Z,4.75
2022-07-29T23:03:35.204Z,4.43
2022-07-29T23:06:04.176Z,4.85
2022-07-29T23:08:33.428Z,4.57
2022-07-29T23:11:01.784Z,4.63
2022-07-29T23:13:30.566Z,4.95
2022-07-29T23:16:01.149Z,4.68
2022-07-29T23:18:29.924Z,5.07
2022-07-29T23:20:58.559Z,4.55
2022-07-29T23:23:27.213Z,4.93
2022-07-29T23:26:00.757Z,5.10
2022-07-29T23:28:29.402Z,5.03
2022-07-29T23:30:59.673Z,4.60
2022-07-29T23:33:28.746Z,4.88
2022-07-29T23:35:57.105Z,5.28
2022-07-29T23:38:25.657Z,5.18
2022-07-29T23:40:53.871Z,5.07
2022-07-29T23:43:22.551Z,5.25
2022-07-29T23:45:51.196Z,4.43
2022-07-29T23:48:24.606Z,5.00
2022-07-29T23:50:53.425Z,5.18
2022-07-29T23:53:24.478Z,5.40
2022-07-29T23:55:53.209Z,5.10
2022-07-29T23:58:22.113Z,5.45
